SPYL

Details ICAO SPYL (TYL)
Name CAPITAN MONTES
Region Peru
Timezone America/Lima (UTC-5.0)
Plans Departing 8
Arriving 10
Stats Elevation 282 ft / 86 m (AMSL)
Location -4.576625° -81.254127°
Runways 1
Magnetic Variation 0.778° W
Sunrise 2018-05-25 11:26:52 UTC / 2018-05-25 06:26:52 Local
Sunset 2018-05-25 23:19:58 UTC / 2018-05-25 18:19:58 Local
Advertisement - Login to hide

Runways

ID Width Length Bearing (true) Bearing (mag) Surface Threshold Offset Overrun Length
17 148 ft / 45 m 8,111 ft / 2,472 m 169.96° 170.74° Asphalt 0 ft / 0 m 0 ft / 0 m
35 148 ft / 45 m 8,111 ft / 2,472 m 349.96° 350.74° Asphalt 0 ft / 0 m 0 ft / 0 m

Map

Weather


0- 5 10 15 20 25 30 35+ Temperature / ° C

Clouds and Precipitation
Forecast for 2018-05-25 12:00 UTC. Updated 35 minutes ago

Ground ~20,000 ft ~40,000 ft Winds

METAR

Not found

TAF

TAF SPYL 251100Z 2512/2612 15016KT 9999 SCT040 TX29/2519Z TN18/2611Z BECMG 2515/2518 19012KT CAVOK
Warning: Do not use this data for real-world aviation or navigation. No guarantee of current accuracy is given.